createdAt,value
2018-09-24T00:02:25.235Z,0.50
2018-09-24T00:04:57.997Z,0.30
2018-09-24T00:07:29.511Z,0.40
2018-09-24T00:10:00.060Z,0.40
2018-09-24T00:12:31.124Z,0.50
2018-09-24T00:15:01.797Z,0.30
2018-09-24T00:17:31.991Z,0.50
2018-09-24T00:20:02.217Z,0.30
2018-09-24T00:22:32.423Z,0.40
2018-09-24T00:25:03.256Z,0.50
2018-09-24T00:27:33.800Z,0.60
2018-09-24T00:30:05.797Z,0.60
2018-09-24T00:32:36.593Z,0.40
2018-09-24T00:35:07.496Z,0.40
2018-09-24T00:37:37.972Z,0.40
2018-09-24T00:40:08.669Z,0.50
2018-09-24T00:42:39.156Z,0.63
2018-09-24T00:45:09.732Z,0.50
2018-09-24T00:47:40.498Z,0.40
2018-09-24T00:50:11.028Z,0.67
2018-09-24T00:52:41.516Z,0.30
2018-09-24T00:55:11.767Z,0.40
2018-09-24T00:57:42.156Z,0.60
2018-09-24T01:00:12.899Z,0.40
2018-09-24T01:02:43.375Z,0.40
2018-09-24T01:05:14.237Z,0.43
2018-09-24T01:07:44.709Z,0.30
2018-09-24T01:10:15.801Z,0.30
2018-09-24T01:12:47.416Z,0.33
2018-09-24T01:15:17.975Z,0.50
2018-09-24T01:17:53.857Z,0.30
2018-09-24T01:20:24.344Z,0.30
2018-09-24T01:22:54.853Z,0.30
2018-09-24T01:25:25.552Z,0.30
2018-09-24T01:27:56.221Z,0.30
2018-09-24T01:30:26.938Z,0.30
2018-09-24T01:32:58.124Z,0.30
2018-09-24T01:35:28.729Z,0.30
2018-09-24T01:37:59.760Z,0.30
2018-09-24T01:40:30.561Z,0.33
2018-09-24T01:43:00.766Z,0.30
2018-09-24T01:45:31.039Z,0.30
2018-09-24T01:48:01.516Z,0.40
2018-09-24T01:50:31.744Z,0.30
2018-09-24T01:53:04.652Z,0.30
2018-09-24T01:55:35.257Z,0.20
2018-09-24T01:58:05.483Z,0.30
2018-09-24T02:00:36.052Z,0.30
2018-09-24T02:03:06.555Z,0.30
2018-09-24T02:05:36.786Z,0.30
2018-09-24T02:08:07.296Z,0.30
2018-09-24T02:10:37.516Z,0.67
2018-09-24T02:13:07.975Z,0.30
2018-09-24T02:15:38.592Z,0.30
2018-09-24T02:18:09.115Z,0.30
2018-09-24T02:20:47.677Z,0.30
2018-09-24T02:23:19.048Z,0.30
2018-09-24T02:25:49.284Z,0.30
2018-09-24T02:28:19.842Z,0.50
2018-09-24T02:30:50.317Z,0.30
2018-09-24T02:33:21.089Z,0.30
2018-09-24T02:35:51.775Z,0.27
2018-09-24T02:38:22.318Z,0.30
2018-09-24T02:40:53.140Z,0.30
2018-09-24T02:43:25.436Z,0.40
2018-09-24T02:45:56.329Z,0.30
2018-09-24T02:48:26.837Z,0.40
2018-09-24T02:50:57.073Z,0.30
2018-09-24T02:53:27.564Z,0.40
2018-09-24T02:55:58.229Z,0.30
2018-09-24T02:58:28.453Z,0.30
2018-09-24T03:00:58.713Z,0.40
2018-09-24T03:03:29.292Z,0.60
2018-09-24T03:05:59.772Z,0.30
2018-09-24T03:08:30.480Z,0.40
2018-09-24T03:11:04.635Z,0.40
2018-09-24T03:13:34.976Z,0.30
2018-09-24T03:16:05.736Z,0.30
2018-09-24T03:18:36.264Z,0.30
2018-09-24T03:21:07.611Z,0.30
2018-09-24T03:23:38.996Z,0.30
2018-09-24T03:26:09.983Z,0.30
2018-09-24T03:29:43.134Z,0.30
2018-09-24T03:32:13.627Z,0.30
2018-09-24T03:34:44.097Z,0.30
2018-09-24T03:37:14.593Z,0.30
2018-09-24T03:39:45.205Z,0.30
2018-09-24T03:42:15.805Z,0.30
2018-09-24T03:44:46.692Z,0.30
2018-09-24T03:47:17.195Z,0.33
2018-09-24T03:49:47.639Z,0.30
2018-09-24T03:52:18.144Z,0.30
2018-09-24T03:54:48.793Z,0.30
2018-09-24T03:57:19.521Z,0.47
2018-09-24T03:59:49.950Z,0.30
2018-09-24T04:02:20.702Z,0.40
2018-09-24T04:04:56.220Z,0.40
2018-09-24T04:07:32.063Z,0.30
2018-09-24T04:10:07.901Z,0.30
2018-09-24T04:12:44.145Z,0.30
2018-09-24T04:15:20.156Z,0.30
2018-09-24T04:17:56.225Z,0.37
2018-09-24T04:20:32.052Z,0.40
2018-09-24T04:23:07.849Z,0.30
2018-09-24T04:25:43.367Z,0.30
2018-09-24T04:28:19.216Z,0.30
2018-09-24T04:30:54.854Z,0.30
2018-09-24T04:33:31.175Z,0.30
2018-09-24T04:36:07.052Z,0.30
2018-09-24T04:38:42.892Z,0.43
2018-09-24T04:41:18.592Z,0.50
2018-09-24T04:43:54.464Z,0.30
2018-09-24T04:46:30.235Z,0.30
2018-09-24T04:49:06.213Z,0.30
2018-09-24T04:51:42.458Z,0.30
2018-09-24T04:54:18.641Z,0.33
2018-09-24T04:56:54.360Z,0.30
2018-09-24T04:59:29.959Z,0.30
2018-09-24T05:02:05.931Z,0.30
2018-09-24T05:04:43.140Z,0.30
2018-09-24T05:07:18.848Z,0.30
2018-09-24T05:09:55.427Z,0.40
2018-09-24T05:12:30.965Z,0.30
2018-09-24T05:15:06.388Z,0.40
2018-09-24T05:17:42.201Z,0.30
2018-09-24T05:20:18.065Z,0.50
2018-09-24T05:22:54.036Z,0.50
2018-09-24T05:25:29.865Z,0.43
2018-09-24T05:28:05.523Z,0.40
2018-09-24T05:30:41.213Z,0.50
2018-09-24T05:33:17.104Z,0.50
2018-09-24T05:35:53.415Z,0.47
2018-09-24T05:38:29.491Z,0.50
2018-09-24T05:41:11.651Z,0.43
2018-09-24T05:43:47.202Z,0.60
2018-09-24T05:46:23.704Z,0.60
2018-09-24T05:48:59.645Z,0.50
2018-09-24T05:51:35.063Z,0.60
2018-09-24T05:54:10.911Z,0.60
2018-09-24T05:56:47.087Z,0.60
2018-09-24T05:59:22.888Z,0.60
2018-09-24T06:01:58.749Z,0.60
2018-09-24T06:04:34.658Z,0.50
2018-09-24T06:07:11.119Z,0.73
2018-09-24T06:09:46.683Z,0.50
2018-09-24T06:12:22.560Z,0.70
2018-09-24T06:15:02.029Z,0.90
2018-09-24T06:17:37.653Z,0.70
2018-09-24T06:20:14.161Z,0.40
2018-09-24T06:22:49.648Z,0.63
2018-09-24T06:25:24.960Z,0.73
2018-09-24T06:28:00.798Z,0.70
2018-09-24T06:30:36.429Z,0.73
2018-09-24T06:33:12.257Z,0.50
2018-09-24T06:35:47.577Z,0.70
2018-09-24T06:38:23.702Z,0.53
2018-09-24T06:40:59.522Z,0.93
2018-09-24T06:43:35.436Z,0.50
2018-09-24T06:46:11.598Z,1.00
2018-09-24T06:48:47.384Z,0.67
2018-09-24T06:51:24.095Z,0.60
2018-09-24T06:53:59.704Z,0.70
2018-09-24T06:56:35.559Z,0.73
2018-09-24T06:59:11.796Z,0.60
2018-09-24T07:01:47.577Z,0.50
2018-09-24T07:04:23.311Z,0.83
2018-09-24T07:06:59.124Z,0.70
2018-09-24T07:09:34.998Z,0.50
2018-09-24T07:12:11.463Z,0.80
2018-09-24T07:14:47.267Z,0.60
2018-09-24T07:17:23.020Z,0.70
2018-09-24T07:19:58.582Z,0.90
2018-09-24T07:22:34.461Z,0.73
2018-09-24T07:25:14.292Z,0.50
2018-09-24T07:27:50.265Z,1.00
2018-09-24T07:30:25.814Z,0.87
2018-09-24T07:33:01.389Z,0.93
2018-09-24T07:35:37.280Z,0.70
2018-09-24T07:38:13.125Z,0.50
2018-09-24T07:40:48.607Z,0.60
2018-09-24T07:43:23.885Z,0.50
2018-09-24T07:46:00.046Z,0.50
2018-09-24T07:48:35.875Z,0.53
2018-09-24T07:51:11.722Z,0.70
2018-09-24T07:53:51.484Z,0.50
2018-09-24T07:56:30.445Z,0.40
2018-09-24T07:59:09.711Z,0.40
2018-09-24T08:01:45.345Z,0.60
2018-09-24T08:04:20.758Z,0.60
2018-09-24T08:06:56.398Z,0.73
2018-09-24T08:09:34.957Z,0.80
2018-09-24T08:12:18.565Z,0.50
2018-09-24T08:14:56.299Z,0.50
2018-09-24T08:17:35.525Z,0.40
2018-09-24T08:20:16.383Z,0.60
2018-09-24T08:22:54.560Z,0.50
2018-09-24T08:25:41.517Z,0.40
2018-09-24T08:28:24.977Z,0.60
2018-09-24T08:31:08.622Z,0.60
2018-09-24T08:33:47.061Z,0.50
2018-09-24T08:36:33.496Z,0.93
2018-09-24T08:39:15.909Z,0.50
2018-09-24T08:41:59.514Z,0.40
2018-09-24T08:44:44.309Z,0.60
2018-09-24T08:47:31.679Z,0.70
2018-09-24T08:50:17.338Z,0.83
2018-09-24T08:53:01.875Z,0.80
2018-09-24T08:55:44.994Z,0.50
2018-09-24T08:58:30.395Z,0.50
2018-09-24T09:01:09.296Z,0.67
2018-09-24T09:03:53.219Z,0.60
2018-09-24T09:06:33.479Z,0.47
2018-09-24T09:09:19.849Z,0.83
2018-09-24T09:12:03.776Z,0.40
2018-09-24T09:14:47.403Z,0.50
2018-09-24T09:17:34.839Z,0.60
2018-09-24T09:20:19.303Z,0.50
2018-09-24T09:22:56.879Z,0.80
2018-09-24T09:25:37.016Z,0.50
2018-09-24T09:28:16.207Z,0.50
2018-09-24T09:30:58.856Z,0.50
2018-09-24T09:33:36.068Z,0.50
2018-09-24T09:36:20.361Z,0.40
2018-09-24T09:39:05.490Z,0.50
2018-09-24T09:41:50.400Z,0.50
2018-09-24T09:44:34.521Z,0.77
2018-09-24T09:47:18.970Z,0.40
2018-09-24T09:49:56.561Z,0.60
2018-09-24T09:52:39.827Z,0.33
2018-09-24T09:55:24.790Z,0.50
2018-09-24T09:58:09.862Z,0.70
2018-09-24T10:01:00.212Z,0.50
2018-09-24T10:03:44.666Z,0.67
2018-09-24T10:06:29.323Z,0.60
2018-09-24T10:09:14.600Z,0.60
2018-09-24T10:11:58.659Z,0.50
2018-09-24T10:14:42.003Z,0.63
2018-09-24T10:17:18.601Z,0.40
2018-09-24T10:20:01.051Z,1.00
2018-09-24T10:22:45.084Z,0.80
2018-09-24T10:25:28.798Z,0.57
2018-09-24T10:28:18.381Z,0.40
2018-09-24T10:31:03.285Z,0.73
2018-09-24T10:33:39.626Z,0.70
2018-09-24T10:36:15.310Z,0.40
2018-09-24T10:38:50.921Z,0.50
2018-09-24T10:41:26.482Z,0.50
2018-09-24T10:44:02.213Z,0.60
2018-09-24T10:46:38.453Z,0.53
2018-09-24T10:49:17.535Z,0.40
2018-09-24T10:51:53.260Z,0.53
2018-09-24T10:54:28.877Z,0.40
2018-09-24T10:57:04.538Z,0.60
2018-09-24T10:59:41.843Z,0.50
2018-09-24T11:02:18.057Z,0.73
2018-09-24T11:04:53.938Z,0.53
2018-09-24T11:07:30.717Z,0.50
2018-09-24T11:10:06.590Z,0.70
2018-09-24T11:12:44.475Z,0.60
2018-09-24T11:15:20.856Z,0.60
2018-09-24T11:17:56.425Z,0.40
2018-09-24T11:20:32.131Z,0.50
2018-09-24T11:23:07.573Z,0.50
2018-09-24T11:25:43.426Z,0.33
2018-09-24T11:28:19.529Z,0.60
2018-09-24T11:30:55.347Z,0.50
2018-09-24T11:33:30.784Z,0.60
2018-09-24T11:36:06.413Z,0.67
2018-09-24T11:38:42.591Z,0.50
2018-09-24T11:41:18.148Z,0.73
2018-09-24T11:43:53.871Z,0.70
2018-09-24T11:46:29.939Z,1.60
2018-09-24T11:49:05.723Z,0.60
2018-09-24T11:51:41.596Z,0.70
2018-09-24T11:54:17.030Z,0.63
2018-09-24T11:56:53.077Z,0.60
2018-09-24T11:59:28.954Z,0.70
2018-09-24T12:02:04.896Z,0.87
2018-09-24T12:04:40.798Z,0.70
2018-09-24T12:07:16.349Z,0.67
2018-09-24T12:09:52.120Z,0.70
2018-09-24T12:12:28.181Z,0.83
2018-09-24T12:15:04.160Z,0.93
2018-09-24T12:17:39.707Z,0.60
2018-09-24T12:20:15.254Z,0.90
2018-09-24T12:22:51.007Z,0.90
2018-09-24T12:25:26.857Z,0.83
2018-09-24T12:28:02.176Z,0.60
2018-09-24T12:30:37.628Z,1.00
2018-09-24T12:33:13.214Z,0.90
2018-09-24T12:35:48.980Z,0.50
2018-09-24T12:38:25.472Z,0.60
2018-09-24T12:41:01.129Z,0.70
2018-09-24T12:43:36.869Z,0.60
2018-09-24T12:46:13.004Z,0.50
2018-09-24T12:48:48.927Z,0.67
2018-09-24T12:51:24.813Z,0.53
2018-09-24T12:54:00.720Z,0.50
2018-09-24T12:56:36.128Z,0.50
2018-09-24T12:59:11.948Z,0.50
2018-09-24T13:01:47.752Z,0.40
2018-09-24T13:04:23.768Z,0.60
2018-09-24T13:06:59.621Z,0.50
2018-09-24T13:09:35.508Z,0.70
2018-09-24T13:12:11.288Z,0.70
2018-09-24T13:14:47.003Z,0.60
2018-09-24T13:17:23.013Z,0.50
2018-09-24T13:19:58.564Z,0.40
2018-09-24T13:22:34.274Z,0.40
2018-09-24T13:25:10.038Z,0.57
2018-09-24T13:27:45.868Z,0.50
2018-09-24T13:30:21.228Z,0.50
2018-09-24T13:32:56.752Z,0.50
2018-09-24T13:35:32.640Z,0.40
2018-09-24T13:38:08.496Z,0.50
2018-09-24T13:40:44.063Z,0.60
2018-09-24T13:43:19.558Z,0.80
2018-09-24T13:45:55.405Z,0.50
2018-09-24T13:48:31.422Z,0.47
2018-09-24T13:51:07.236Z,0.40
2018-09-24T13:53:43.041Z,0.40
2018-09-24T13:56:18.787Z,0.57
2018-09-24T13:58:54.963Z,0.50
2018-09-24T14:01:30.839Z,0.53
2018-09-24T14:04:06.511Z,0.40
2018-09-24T14:06:42.120Z,0.50
2018-09-24T14:09:17.874Z,0.57
2018-09-24T14:11:53.324Z,0.60
2018-09-24T14:14:29.096Z,0.50
2018-09-24T14:17:04.812Z,0.30
2018-09-24T14:19:40.636Z,0.73
2018-09-24T14:22:16.000Z,1.27
2018-09-24T14:24:51.910Z,0.40
2018-09-24T14:27:28.125Z,0.60
2018-09-24T14:30:04.045Z,0.60
2018-09-24T14:32:39.636Z,0.40
2018-09-24T14:35:17.299Z,0.60
2018-09-24T14:37:53.035Z,0.77
2018-09-24T14:40:28.906Z,0.40
2018-09-24T14:43:04.782Z,0.40
2018-09-24T14:45:41.262Z,1.27
2018-09-24T14:48:17.108Z,0.70
2018-09-24T14:50:53.755Z,0.57
2018-09-24T14:53:29.907Z,0.60
2018-09-24T14:56:05.951Z,0.63
2018-09-24T14:58:41.809Z,0.40
2018-09-24T15:01:17.964Z,0.47
2018-09-24T15:03:53.688Z,0.87
2018-09-24T15:06:29.664Z,0.50
2018-09-24T15:09:05.356Z,0.57
2018-09-24T15:11:40.764Z,0.40
2018-09-24T15:14:16.373Z,0.50
2018-09-24T15:16:52.097Z,0.40
2018-09-24T15:19:28.130Z,0.70
2018-09-24T15:22:04.072Z,0.50
2018-09-24T15:24:40.130Z,0.60
2018-09-24T15:27:15.944Z,0.60
2018-09-24T15:29:51.850Z,0.30
2018-09-24T15:32:27.774Z,0.60
2018-09-24T15:35:03.373Z,0.50
2018-09-24T15:37:39.753Z,0.40
2018-09-24T15:40:15.323Z,0.70
2018-09-24T15:42:50.704Z,0.63
2018-09-24T15:45:27.561Z,0.60
2018-09-24T15:48:03.390Z,0.50
2018-09-24T15:50:39.536Z,0.50
2018-09-24T15:53:15.901Z,0.43
2018-09-24T15:55:51.535Z,0.40
2018-09-24T15:58:28.329Z,0.40
2018-09-24T16:01:04.661Z,0.47
2018-09-24T16:03:40.580Z,0.40
2018-09-24T16:06:19.478Z,0.60
2018-09-24T16:08:55.166Z,0.50
2018-09-24T16:11:31.409Z,0.50
2018-09-24T16:14:06.741Z,0.40
2018-09-24T16:16:42.199Z,0.60
2018-09-24T16:19:17.560Z,0.60
2018-09-24T16:21:53.403Z,0.83
2018-09-24T16:24:29.184Z,0.60
2018-09-24T16:27:04.530Z,0.53
2018-09-24T16:29:40.437Z,0.50
2018-09-24T16:32:16.258Z,0.40
2018-09-24T16:34:52.582Z,0.30
2018-09-24T16:37:28.089Z,0.60
2018-09-24T16:40:03.645Z,0.53
2018-09-24T16:42:39.470Z,0.50
2018-09-24T16:45:15.223Z,0.47
2018-09-24T16:47:51.330Z,0.40
2018-09-24T16:50:27.076Z,0.60
2018-09-24T16:53:02.897Z,0.70
2018-09-24T16:55:38.680Z,0.50
2018-09-24T16:58:14.040Z,0.60
2018-09-24T17:00:49.669Z,0.80
2018-09-24T17:03:25.383Z,0.47
2018-09-24T17:06:01.426Z,0.40
2018-09-24T17:08:37.216Z,0.40
2018-09-24T17:11:12.905Z,0.50
2018-09-24T17:13:48.813Z,0.60
2018-09-24T17:16:24.671Z,0.50
2018-09-24T17:19:00.498Z,0.60
2018-09-24T17:21:38.126Z,0.43
2018-09-24T17:24:13.875Z,0.40
2018-09-24T17:26:49.624Z,0.57
2018-09-24T17:29:25.481Z,0.60
2018-09-24T17:32:01.554Z,0.50
2018-09-24T17:34:37.003Z,0.70
2018-09-24T17:37:12.712Z,0.50
2018-09-24T17:39:48.399Z,0.57
2018-09-24T17:42:24.216Z,0.50
2018-09-24T17:44:59.718Z,0.50
2018-09-24T17:47:35.232Z,0.50
2018-09-24T17:50:11.158Z,0.80
2018-09-24T17:52:46.733Z,1.30
2018-09-24T17:55:22.554Z,0.60
2018-09-24T17:57:58.677Z,0.60
2018-09-24T18:00:34.606Z,0.70
2018-09-24T18:03:10.435Z,1.17
2018-09-24T18:05:46.040Z,0.67
2018-09-24T18:08:22.130Z,0.97
2018-09-24T18:11:03.970Z,0.50
2018-09-24T18:13:39.797Z,0.80
2018-09-24T18:16:15.335Z,0.90
2018-09-24T18:18:51.247Z,1.10
2018-09-24T18:21:27.092Z,0.70
2018-09-24T18:24:03.074Z,0.93
2018-09-24T18:26:38.628Z,0.70
2018-09-24T18:29:16.026Z,1.03
2018-09-24T18:31:51.632Z,0.83
2018-09-24T18:34:27.219Z,0.77
2018-09-24T18:37:03.207Z,0.80
2018-09-24T18:39:39.153Z,0.87
2018-09-24T18:42:14.519Z,1.00
2018-09-24T18:44:50.576Z,1.00
2018-09-24T18:47:26.520Z,0.60
2018-09-24T18:50:03.172Z,0.97
2018-09-24T18:52:39.009Z,0.80
2018-09-24T18:55:15.379Z,0.80
2018-09-24T18:57:51.250Z,0.80
2018-09-24T19:00:27.257Z,0.87
2018-09-24T19:03:03.141Z,0.50
2018-09-24T19:05:38.996Z,0.90
2018-09-24T19:08:14.874Z,0.73
2018-09-24T19:10:50.783Z,0.80
2018-09-24T19:13:26.499Z,0.70
2018-09-24T19:16:02.871Z,1.70
2018-09-24T19:18:38.714Z,1.10
2018-09-24T19:21:14.946Z,0.73
2018-09-24T19:23:50.841Z,0.70
2018-09-24T19:26:26.340Z,0.60
2018-09-24T19:29:02.226Z,0.90
2018-09-24T19:31:37.954Z,0.90
2018-09-24T19:34:13.645Z,0.60
2018-09-24T19:36:49.751Z,0.77
2018-09-24T19:39:25.558Z,0.67
2018-09-24T19:42:01.729Z,0.80
2018-09-24T19:44:37.295Z,1.07
2018-09-24T19:47:13.057Z,1.17
2018-09-24T19:49:49.012Z,0.87
2018-09-24T19:52:24.884Z,1.00
2018-09-24T19:55:00.862Z,1.87
2018-09-24T19:57:36.897Z,1.43
2018-09-24T20:00:13.133Z,1.33
2018-09-24T20:02:48.849Z,0.93
2018-09-24T20:05:24.892Z,1.30
2018-09-24T20:08:00.566Z,0.87
2018-09-24T20:10:36.071Z,1.10
2018-09-24T20:13:11.920Z,0.90
2018-09-24T20:15:47.950Z,1.20
2018-09-24T20:18:23.849Z,0.87
2018-09-24T20:20:59.616Z,0.80
2018-09-24T20:23:35.386Z,1.13
2018-09-24T20:26:11.288Z,0.90
2018-09-24T20:28:47.157Z,0.93
2018-09-24T20:31:22.940Z,1.00
2018-09-24T20:33:58.897Z,1.20
2018-09-24T20:36:34.813Z,1.27
2018-09-24T20:39:13.477Z,0.93
2018-09-24T20:41:49.272Z,0.93
2018-09-24T20:44:25.188Z,1.07
2018-09-24T20:47:00.901Z,1.10
2018-09-24T20:49:36.482Z,1.10
2018-09-24T20:52:12.068Z,1.10
2018-09-24T20:54:48.273Z,0.97
2018-09-24T20:57:24.091Z,1.13
2018-09-24T20:59:59.818Z,0.90
2018-09-24T21:02:36.916Z,0.90
2018-09-24T21:05:12.345Z,1.00
2018-09-24T21:07:48.733Z,0.80
2018-09-24T21:10:24.436Z,1.33
2018-09-24T21:13:00.492Z,0.90
2018-09-24T21:15:36.310Z,0.90
2018-09-24T21:18:12.133Z,1.07
2018-09-24T21:20:48.003Z,1.43
2018-09-24T21:23:23.843Z,2.00
2018-09-24T21:25:59.707Z,1.00
2018-09-24T21:28:35.388Z,2.00
2018-09-24T21:31:11.443Z,2.83
2018-09-24T21:33:46.860Z,4.13
2018-09-24T21:36:22.743Z,1.40
2018-09-24T21:38:59.676Z,1.43
2018-09-24T21:41:35.135Z,1.33
2018-09-24T21:44:10.820Z,0.93
2018-09-24T21:46:46.561Z,1.00
2018-09-24T21:49:22.312Z,0.80
2018-09-24T21:51:58.085Z,1.20
2018-09-24T21:54:34.092Z,1.30
2018-09-24T21:57:10.269Z,1.17
2018-09-24T21:59:46.023Z,1.03
2018-09-24T22:02:21.751Z,1.20
2018-09-24T22:04:57.063Z,0.83
2018-09-24T22:07:32.835Z,1.00
2018-09-24T22:10:08.824Z,1.10
2018-09-24T22:12:44.644Z,0.70
2018-09-24T22:15:20.391Z,1.20
2018-09-24T22:17:56.440Z,1.00
2018-09-24T22:20:31.854Z,1.37
2018-09-24T22:23:09.072Z,1.33
2018-09-24T22:25:44.840Z,1.13
2018-09-24T22:28:20.423Z,0.70
2018-09-24T22:30:56.328Z,0.50
2018-09-24T22:33:31.765Z,0.80
2018-09-24T22:36:07.639Z,3.50
2018-09-24T22:38:43.800Z,2.13
2018-09-24T22:41:19.764Z,2.93
2018-09-24T22:43:55.589Z,0.77
2018-09-24T22:46:31.295Z,0.93
2018-09-24T22:49:06.834Z,1.23
2018-09-24T22:51:42.752Z,1.80
2018-09-24T22:54:18.649Z,1.20
2018-09-24T22:56:54.682Z,1.47
2018-09-24T22:59:30.415Z,1.10
2018-09-24T23:02:05.954Z,1.20
2018-09-24T23:04:41.864Z,0.97
2018-09-24T23:07:17.752Z,1.40
2018-09-24T23:09:53.348Z,1.47
2018-09-24T23:12:29.200Z,1.37
2018-09-24T23:15:04.777Z,1.37
2018-09-24T23:17:40.514Z,1.80
2018-09-24T23:20:16.364Z,1.60
2018-09-24T23:22:52.218Z,1.37
2018-09-24T23:25:28.001Z,1.37
2018-09-24T23:28:03.809Z,1.23
2018-09-24T23:30:39.625Z,1.30
2018-09-24T23:33:15.336Z,1.10
2018-09-24T23:35:51.184Z,1.27
2018-09-24T23:38:27.040Z,0.70
2018-09-24T23:41:02.868Z,1.50
2018-09-24T23:43:39.159Z,1.07
2018-09-24T23:46:15.073Z,1.10
2018-09-24T23:48:50.560Z,1.10
2018-09-24T23:51:26.256Z,1.83
2018-09-24T23:54:01.972Z,1.23
2018-09-24T23:56:37.542Z,1.10
2018-09-24T23:59:13.970Z,1.10
